createdAt,value
2023-05-18T03:57:48.973Z,100585.63
2023-05-18T04:00:52.892Z,100577.69
2023-05-18T04:03:56.740Z,100582.59
2023-05-18T04:07:02.408Z,100583.75
2023-05-18T04:10:07.469Z,100581.75
2023-05-18T04:13:11.004Z,100582.09
2023-05-18T04:16:14.403Z,100584.59
2023-05-18T04:19:17.249Z,100594.53
2023-05-18T04:22:22.111Z,100591.69
2023-05-18T04:25:28.849Z,100596.25
2023-05-18T04:28:32.552Z,100601.28
2023-05-18T04:31:35.683Z,100601.78
2023-05-18T04:34:39.429Z,100607.16
2023-05-18T04:37:42.883Z,100601.78
2023-05-18T04:40:46.324Z,100609.84
2023-05-18T04:43:50.410Z,100608.31
2023-05-18T04:46:55.015Z,100610.88
2023-05-18T04:49:58.111Z,100609.81
2023-05-18T04:53:02.329Z,100608.81
2023-05-18T04:56:05.568Z,100610.81
2023-05-18T04:59:09.443Z,100611.13
2023-05-18T05:02:12.205Z,100617.00
2023-05-18T05:05:15.263Z,100617.00
2023-05-18T05:08:18.001Z,100613.81
2023-05-18T05:11:21.681Z,100622.59
2023-05-18T05:14:24.518Z,100623.56
2023-05-18T05:17:27.501Z,100622.59
2023-05-18T05:20:30.181Z,100623.09
2023-05-18T05:23:34.287Z,100623.75
2023-05-18T05:26:37.221Z,100632.69
2023-05-18T05:29:40.239Z,100632.00
2023-05-18T05:32:43.762Z,100637.22
2023-05-18T05:35:47.042Z,100634.53
2023-05-18T05:38:49.969Z,100629.66
2023-05-18T05:41:53.121Z,100635.50
2023-05-18T05:44:56.043Z,100643.09
2023-05-18T05:48:00.140Z,100652.50
2023-05-18T05:51:02.929Z,100649.47
2023-05-18T05:54:07.461Z,100648.62
2023-05-18T05:57:11.793Z,100648.28
2023-05-18T06:00:15.230Z,100651.16
2023-05-18T06:03:23.426Z,100647.91
2023-05-18T06:06:27.791Z,100657.66
2023-05-18T06:09:30.558Z,100652.12
2023-05-18T06:12:33.930Z,100661.38
2023-05-18T06:15:36.670Z,100663.22
2023-05-18T06:18:40.204Z,100668.28
2023-05-18T06:21:45.529Z,100665.09
2023-05-18T06:24:48.904Z,100673.50
2023-05-18T06:27:52.343Z,100674.69
2023-05-18T06:30:55.648Z,100676.00
2023-05-18T06:34:00.838Z,100679.22
2023-05-18T06:37:04.132Z,100684.78
2023-05-18T06:40:09.381Z,100687.28
2023-05-18T06:43:12.407Z,100686.97
2023-05-18T06:46:24.934Z,100687.13
2023-05-18T06:49:28.336Z,100699.78
2023-05-18T06:52:31.546Z,100698.75
2023-05-18T06:55:34.590Z,100703.47
2023-05-18T06:58:38.241Z,100705.03
2023-05-18T07:01:41.961Z,100705.03
2023-05-18T07:04:45.049Z,100700.47
2023-05-18T07:07:48.102Z,100706.69
2023-05-18T07:10:51.656Z,100712.56
2023-05-18T07:13:54.668Z,100705.66
2023-05-18T07:16:57.359Z,100720.62
2023-05-18T07:20:00.443Z,100709.19
2023-05-18T07:23:03.084Z,100712.53
2023-05-18T07:26:08.211Z,100720.28
2023-05-18T07:29:11.102Z,100719.09
2023-05-18T07:32:14.063Z,100722.09
2023-05-18T07:35:21.724Z,100731.16
2023-05-18T07:38:24.822Z,100731.16
2023-05-18T07:41:31.760Z,100738.41
2023-05-18T07:44:34.898Z,100738.22
2023-05-18T07:47:37.798Z,100736.84
2023-05-18T07:50:41.399Z,100739.00
2023-05-18T07:53:46.009Z,100741.38
2023-05-18T07:56:49.185Z,100746.88
2023-05-18T07:59:52.512Z,100750.75
2023-05-18T08:02:55.561Z,100738.25
2023-05-18T08:05:58.607Z,100746.81
2023-05-18T08:09:01.245Z,100755.72
2023-05-18T08:12:05.022Z,100751.84
2023-05-18T08:15:08.749Z,100751.00
2023-05-18T08:18:11.665Z,100757.69
2023-05-18T08:21:14.401Z,100756.06
2023-05-18T08:24:17.359Z,100752.69
2023-05-18T08:27:20.102Z,100754.56
2023-05-18T08:30:23.098Z,100758.34
2023-05-18T08:33:26.003Z,100764.84
2023-05-18T08:36:29.016Z,100766.47
2023-05-18T08:39:32.426Z,100763.75
2023-05-18T08:43:04.062Z,100763.34
2023-05-18T08:46:19.311Z,100761.41
2023-05-18T08:49:22.494Z,100763.03
2023-05-18T08:52:28.980Z,100767.22
2023-05-18T08:55:37.252Z,100771.56
2023-05-18T08:58:48.860Z,100761.59
2023-05-18T09:01:55.295Z,100765.91
2023-05-18T09:04:59.246Z,100764.25
2023-05-18T09:08:03.774Z,100764.28
2023-05-18T09:11:07.098Z,100767.56
2023-05-18T09:14:10.563Z,100755.34
2023-05-18T09:17:13.276Z,100760.69
2023-05-18T09:20:17.468Z,100756.13
2023-05-18T09:23:20.173Z,100750.69
2023-05-18T09:26:23.122Z,100757.84
2023-05-18T09:29:25.802Z,100751.00
2023-05-18T09:32:29.731Z,100759.31
2023-05-18T09:35:32.854Z,100767.41
2023-05-18T09:38:44.010Z,100759.66
2023-05-18T09:41:46.716Z,100756.72
2023-05-18T09:44:49.616Z,100757.03
2023-05-18T09:47:53.644Z,100764.34
2023-05-18T09:50:59.513Z,100765.38
2023-05-18T09:54:05.246Z,100763.38
2023-05-18T09:57:11.255Z,100769.28
2023-05-18T10:00:16.988Z,100762.16
2023-05-18T10:03:25.009Z,100762.84
2023-05-18T10:06:28.362Z,100766.22
2023-05-18T10:09:31.458Z,100767.97
2023-05-18T10:12:34.420Z,100764.31
2023-05-18T10:15:38.049Z,100766.97
2023-05-18T10:18:41.149Z,100771.44
2023-05-18T10:21:44.839Z,100761.25
2023-05-18T10:24:51.739Z,100757.12
2023-05-18T10:28:01.792Z,100762.63
2023-05-18T10:31:06.749Z,100763.13
2023-05-18T10:34:11.117Z,100760.81
2023-05-18T10:37:15.376Z,100762.94
2023-05-18T10:40:19.796Z,100767.62
2023-05-18T10:43:28.525Z,100769.50
2023-05-18T10:46:33.907Z,100777.94
2023-05-18T10:49:37.438Z,100765.50
2023-05-18T10:52:41.534Z,100774.31
2023-05-18T10:55:44.277Z,100766.59
2023-05-18T10:58:48.086Z,100766.88
2023-05-18T11:01:53.983Z,100768.06
2023-05-18T11:04:57.385Z,100766.16
2023-05-18T11:08:05.681Z,100771.09
2023-05-18T11:11:08.876Z,100770.25
2023-05-18T11:14:12.827Z,100773.63
2023-05-18T11:17:22.793Z,100769.25
2023-05-18T11:20:26.202Z,100775.16
2023-05-18T11:23:33.309Z,100778.03
2023-05-18T11:26:46.684Z,100781.59
2023-05-18T11:29:51.894Z,100774.38
2023-05-18T11:33:21.274Z,100775.75
2023-05-18T11:36:25.253Z,100785.84
2023-05-18T11:39:27.861Z,100782.94
2023-05-18T11:42:35.005Z,100784.91
2023-05-18T11:45:53.242Z,100792.41
2023-05-18T11:48:56.379Z,100794.56
2023-05-18T11:52:19.129Z,100791.38
2023-05-18T11:55:22.467Z,100790.84
2023-05-18T11:58:26.253Z,100796.47
2023-05-18T12:01:30.136Z,100794.97
2023-05-18T12:04:34.333Z,100796.75
2023-05-18T12:07:39.030Z,100788.25
2023-05-18T12:10:42.254Z,100797.13
2023-05-18T12:13:46.349Z,100792.59
2023-05-18T12:16:49.983Z,100800.78
2023-05-18T12:19:52.946Z,100793.44
2023-05-18T12:22:56.487Z,100801.84
2023-05-18T12:25:59.156Z,100796.75
2023-05-18T12:29:02.463Z,100798.25
2023-05-18T12:32:10.253Z,100796.25
2023-05-18T12:35:15.493Z,100791.12
2023-05-18T12:38:18.427Z,100783.72
2023-05-18T12:41:26.626Z,100795.38
2023-05-18T12:44:29.365Z,100795.19
2023-05-18T12:47:33.862Z,100788.56
2023-05-18T12:50:38.791Z,100790.66
2023-05-18T12:53:43.239Z,100789.25
2023-05-18T12:57:02.246Z,100789.87
2023-05-18T13:00:10.679Z,100788.34
2023-05-18T13:03:18.555Z,100790.34
2023-05-18T13:06:21.501Z,100795.50
2023-05-18T13:09:24.140Z,100790.50
2023-05-18T13:12:48.310Z,100795.78
2023-05-18T13:15:51.193Z,100790.59
2023-05-18T13:18:59.837Z,100792.72
2023-05-18T13:22:02.765Z,100789.59
2023-05-18T13:25:08.980Z,100791.12
2023-05-18T13:28:13.654Z,100783.47
2023-05-18T13:31:16.697Z,100789.31
2023-05-18T13:34:19.419Z,100791.72
2023-05-18T13:37:23.049Z,100796.44
2023-05-18T13:40:25.909Z,100795.50
2023-05-18T13:43:28.908Z,100801.97
2023-05-18T13:46:32.117Z,100804.81
2023-05-18T13:49:35.161Z,100800.09
2023-05-18T13:52:38.222Z,100793.19
2023-05-18T13:55:41.339Z,100795.31
2023-05-18T13:58:44.667Z,100800.50
2023-05-18T14:01:47.858Z,100805.88
2023-05-18T14:04:51.540Z,100798.72
2023-05-18T14:07:54.232Z,100806.34
2023-05-18T14:10:57.259Z,100807.78
2023-05-18T14:14:00.920Z,100804.00
2023-05-18T14:17:04.792Z,100808.19
2023-05-18T14:20:08.263Z,100808.94
2023-05-18T14:23:11.169Z,100811.13
2023-05-18T14:26:13.961Z,100814.41
2023-05-18T14:29:17.008Z,100807.59
2023-05-18T14:32:23.334Z,100815.50
2023-05-18T14:35:26.508Z,100814.84
2023-05-18T14:38:29.190Z,100810.63
2023-05-18T14:41:32.149Z,100818.62
2023-05-18T14:44:35.303Z,100819.31
2023-05-18T14:47:38.346Z,100817.16
2023-05-18T14:50:41.088Z,100818.25
2023-05-18T14:53:44.388Z,100821.75
2023-05-18T14:56:47.110Z,100823.72
2023-05-18T14:59:50.426Z,100826.81
2023-05-18T15:02:53.461Z,100827.88
2023-05-18T15:05:56.817Z,100832.03
2023-05-18T15:08:59.508Z,100828.03
2023-05-18T15:12:02.529Z,100826.00
2023-05-18T15:15:06.664Z,100838.09
2023-05-18T15:18:09.775Z,100826.22
2023-05-18T15:21:12.387Z,100828.03
2023-05-18T15:24:15.462Z,100828.03
2023-05-18T15:27:18.217Z,100821.13
2023-05-18T15:30:21.459Z,100825.03
2023-05-18T15:33:24.550Z,100831.09
2023-05-18T15:36:27.938Z,100833.47
2023-05-18T15:39:31.414Z,100835.22
2023-05-18T15:42:34.850Z,100835.00
2023-05-18T15:45:37.590Z,100831.94
2023-05-18T15:48:40.695Z,100827.22
2023-05-18T15:51:43.371Z,100830.56
2023-05-18T15:54:46.365Z,100821.69
2023-05-18T15:57:48.981Z,100834.53
2023-05-18T16:00:51.884Z,100841.53
